Time;durP1;ratioP1;P1;durP2;ratioP2;P2;SDS_P1;SDS_P2;PMS_P1;PMS_P2;Temp;Humidity;BMP_temperature;BMP_pressure;BME280_temperature;BME280_humidity;BME280_pressure;Samples;Min_cycle;Max_cycle;Signal;HPM_P1;HPM_P2
2023/01/18 00:01:03;;;;;;;8.43;7.20;;;5.40;99.90;;;;;;6250188;28;20483;-63
2023/01/18 00:04:08;;;;;;;8.63;7.80;;;5.40;99.90;;;;;;6249534;28;20478;-63
2023/01/18 00:07:11;;;;;;;8.53;7.63;;;5.40;99.90;;;;;;6248535;28;20478;-64
2023/01/18 00:10:15;;;;;;;9.37;8.20;;;5.50;99.90;;;;;;6248806;28;20517;-63
2023/01/18 00:13:18;;;;;;;9.70;8.53;;;5.40;99.90;;;;;;6264065;28;20481;-64
2023/01/18 00:16:24;;;;;;;8.37;7.40;;;5.40;99.90;;;;;;6278278;28;20535;-63
2023/01/18 00:19:29;;;;;;;9.73;8.50;;;5.40;99.90;;;;;;6278119;28;21003;-62
2023/01/18 00:22:32;;;;;;;8.03;7.20;;;5.40;99.90;;;;;;6277695;28;20470;-63
2023/01/18 00:25:36;;;;;;;8.60;7.63;;;5.30;99.90;;;;;;6283700;28;20469;-62
2023/01/18 00:28:40;;;;;;;10.07;8.13;;;5.30;99.90;;;;;;6302248;28;20481;-63
2023/01/18 00:31:44;;;;;;;10.90;7.90;;;5.30;99.90;;;;;;6302903;28;20465;-62
2023/01/18 00:34:49;;;;;;;10.13;7.53;;;5.30;99.90;;;;;;6302337;28;20473;-62
2023/01/18 00:37:53;;;;;;;8.43;7.60;;;5.30;99.90;;;;;;6290435;28;20834;-63
2023/01/18 00:40:57;;;;;;;9.03;8.13;;;5.30;99.90;;;;;;6259347;28;20486;-63
2023/01/18 00:44:00;;;;;;;9.03;8.10;;;5.30;99.90;;;;;;6254388;28;20483;-63
2023/01/18 00:47:03;;;;;;;10.20;8.60;;;5.30;99.90;;;;;;6271482;28;20469;-62
2023/01/18 00:50:09;;;;;;;7.67;6.70;;;5.30;99.90;;;;;;6264169;28;20744;-63
2023/01/18 00:53:12;;;;;;;9.17;8.00;;;5.30;99.90;;;;;;6265718;28;20482;-63
2023/01/18 00:56:17;;;;;;;8.90;8.00;;;5.30;99.90;;;;;;6261147;28;20476;-63
2023/01/18 00:59:21;;;;;;;10.13;8.50;;;5.30;99.90;;;;;;6264400;28;20483;-62
2023/01/18 01:02:24;;;;;;;8.87;7.97;;;5.10;99.90;;;;;;6263971;28;20954;-62
2023/01/18 01:08:49;;;;;;;13.13;10.97;;;4.90;99.90;;;;;;6262881;28;20574;-62
2023/01/18 01:28:38;;;;;;;23.20;18.07;;;4.50;99.90;;;;;;6251479;28;20484;-63
2023/01/18 01:31:42;;;;;;;24.67;19.27;;;4.60;99.90;;;;;;6252073;28;20509;-63
2023/01/18 01:34:45;;;;;;;28.50;21.00;;;4.60;99.90;;;;;;6251831;28;20985;-63
2023/01/18 01:37:50;;;;;;;23.80;20.03;;;4.60;99.90;;;;;;6251626;28;20636;-62
2023/01/18 01:40:57;;;;;;;27.67;21.40;;;4.40;99.90;;;;;;6251735;28;20958;-62
2023/01/18 01:44:03;;;;;;;26.77;19.67;;;4.40;99.90;;;;;;6261201;28;20517;-63
2023/01/18 01:47:11;;;;;;;23.00;19.83;;;4.50;99.90;;;;;;6259528;28;20459;-63
2023/01/18 01:50:19;;;;;;;24.53;18.43;;;4.50;99.90;;;;;;6261270;28;20545;-62
2023/01/18 01:53:24;;;;;;;29.17;20.70;;;4.50;99.90;;;;;;6265424;28;20827;-62
2023/01/18 01:56:28;;;;;;;23.47;17.50;;;4.40;99.90;;;;;;6261712;28;20489;-63
2023/01/18 01:59:31;;;;;;;22.03;17.27;;;4.40;99.90;;;;;;6263335;28;20808;-62
2023/01/18 02:02:36;;;;;;;23.30;17.50;;;4.50;99.90;;;;;;6260457;28;20485;-63
2023/01/18 02:05:43;;;;;;;21.27;17.20;;;4.60;99.90;;;;;;6275616;28;20466;-63
2023/01/18 02:08:47;;;;;;;27.67;17.03;;;4.60;99.90;;;;;;6271181;28;20474;-63
2023/01/18 02:11:52;;;;;;;25.70;18.17;;;4.70;99.90;;;;;;6258768;28;20800;-62
2023/01/18 02:14:56;;;;;;;23.23;17.53;;;4.80;99.90;;;;;;6256921;28;20443;-62
2023/01/18 02:18:22;;;;;;;23.33;17.80;;;4.80;99.90;;;;;;6246942;28;20459;-62
2023/01/18 02:21:31;;;;;;;21.00;15.47;;;4.90;99.90;;;;;;6262225;28;20466;-63
2023/01/18 02:25:17;;;;;;;22.23;15.70;;;4.90;99.90;;;;;;6257786;28;20478;-62
2023/01/18 02:28:31;;;;;;;20.90;15.50;;;4.90;99.90;;;;;;6254917;28;20470;-63
2023/01/18 02:31:43;;;;;;;23.03;17.03;;;5.00;99.90;;;;;;6261061;28;20463;-62
2023/01/18 02:34:49;;;;;;;24.97;17.67;;;5.00;99.90;;;;;;6260184;28;20470;-62
2023/01/18 02:38:02;;;;;;;24.50;19.80;;;5.10;99.90;;;;;;6256556;28;20482;-62
2023/01/18 02:41:13;;;;;;;18.87;15.47;;;5.20;99.90;;;;;;6259925;28;20471;-62
2023/01/18 02:47:50;;;;;;;18.20;14.10;;;5.30;99.90;;;;;;6223126;28;20957;-63
2023/01/18 02:50:54;;;;;;;18.80;14.53;;;5.30;99.90;;;;;;6260749;28;20480;-63
2023/01/18 02:53:57;;;;;;;17.03;12.97;;;5.30;99.90;;;;;;6274401;28;20473;-63
2023/01/18 02:57:05;;;;;;;17.40;12.73;;;5.30;99.90;;;;;;6274428;28;20725;-63
2023/01/18 03:00:16;;;;;;;15.90;11.77;;;5.30;99.90;;;;;;6274733;28;20505;-63
2023/01/18 03:03:21;;;;;;;13.07;11.33;;;5.30;99.90;;;;;;6275025;28;20474;-63
2023/01/18 03:06:27;;;;;;;13.07;9.97;;;5.20;99.90;;;;;;6274578;28;20474;-63
2023/01/18 03:09:31;;;;;;;11.50;9.87;;;5.20;99.90;;;;;;6274210;28;20469;-63
2023/01/18 03:12:45;;;;;;;12.20;10.30;;;5.20;99.90;;;;;;6271814;28;20478;-63
2023/01/18 03:15:54;;;;;;;12.77;10.53;;;5.20;99.90;;;;;;6274572;28;20958;-63
2023/01/18 03:19:04;;;;;;;10.70;9.47;;;5.10;99.90;;;;;;6274259;28;21000;-63
2023/01/18 03:22:07;;;;;;;11.47;10.20;;;5.20;99.90;;;;;;6269956;28;20477;-63
2023/01/18 03:25:14;;;;;;;11.80;10.27;;;5.20;99.90;;;;;;6276319;28;20502;-63
2023/01/18 03:35:13;;;;;;;14.57;10.77;;;5.30;99.90;;;;;;6299334;28;20462;-63
2023/01/18 03:38:17;;;;;;;12.30;10.23;;;5.30;99.90;;;;;;6284843;28;20962;-62
2023/01/18 03:41:24;;;;;;;12.70;10.37;;;5.20;99.90;;;;;;6270017;28;20474;-63
2023/01/18 03:44:34;;;;;;;15.83;12.20;;;5.10;99.90;;;;;;6261460;28;20471;-63
2023/01/18 03:47:39;;;;;;;22.00;15.80;;;5.00;99.90;;;;;;6261518;28;20473;-63
2023/01/18 03:50:48;;;;;;;23.17;17.77;;;4.90;99.90;;;;;;6253279;28;20796;-63
2023/01/18 03:54:00;;;;;;;23.43;17.43;;;4.90;99.90;;;;;;6275185;28;20466;-63
2023/01/18 03:57:08;;;;;;;21.60;15.90;;;4.80;99.90;;;;;;6259898;28;20747;-63
2023/01/18 04:00:14;;;;;;;26.03;18.87;;;4.80;99.90;;;;;;6261244;28;20474;-63
2023/01/18 04:03:18;;;;;;;25.40;18.13;;;4.70;99.90;;;;;;6263073;28;20964;-63
2023/01/18 04:06:22;;;;;;;25.13;17.27;;;4.70;99.90;;;;;;6268935;28;20470;-63
2023/01/18 04:09:26;;;;;;;24.63;19.27;;;4.60;99.90;;;;;;6267457;28;20621;-63
2023/01/18 04:12:30;;;;;;;26.40;17.70;;;4.60;99.90;;;;;;6263197;28;20482;-63
2023/01/18 04:15:33;;;;;;;24.37;17.97;;;4.70;99.90;;;;;;6253844;28;20467;-63
2023/01/18 04:18:38;;;;;;;21.10;17.27;;;4.60;99.90;;;;;;6253394;28;20557;-63
2023/01/18 04:21:41;;;;;;;22.67;18.03;;;4.50;99.90;;;;;;6253118;28;20974;-63
2023/01/18 04:24:44;;;;;;;25.73;17.93;;;4.50;99.90;;;;;;6253204;28;20501;-63
2023/01/18 04:27:47;;;;;;;25.07;17.47;;;4.50;99.90;;;;;;6296122;28;20484;-62
2023/01/18 04:30:51;;;;;;;30.90;19.23;;;4.50;99.90;;;;;;6302583;28;20469;-62
2023/01/18 04:33:56;;;;;;;25.73;19.10;;;4.50;99.90;;;;;;6302425;28;20774;-63
2023/01/18 04:36:59;;;;;;;27.70;19.27;;;4.50;99.90;;;;;;6302441;28;20778;-63
2023/01/18 04:40:03;;;;;;;24.60;18.43;;;4.50;99.90;;;;;;6302543;28;20486;-62
2023/01/18 04:43:06;;;;;;;26.53;18.50;;;4.40;99.90;;;;;;6292883;28;20974;-63
2023/01/18 04:46:09;;;;;;;37.87;23.83;;;4.40;99.90;;;;;;6272609;28;20935;-63
2023/01/18 04:49:16;;;;;;;27.13;19.37;;;4.50;99.90;;;;;;6273924;28;20485;-62
2023/01/18 04:52:19;;;;;;;25.90;18.67;;;4.60;99.90;;;;;;6277430;28;20771;-62
2023/01/18 04:55:22;;;;;;;24.97;17.47;;;4.60;99.90;;;;;;6277935;28;20478;-63
2023/01/18 04:58:25;;;;;;;25.20;17.63;;;4.70;99.90;;;;;;6277317;28;20485;-63
2023/01/18 05:01:29;;;;;;;26.70;18.90;;;4.80;99.90;;;;;;6276886;28;20481;-62
2023/01/18 05:04:34;;;;;;;26.60;19.03;;;4.80;99.90;;;;;;6277410;28;20466;-62
2023/01/18 05:07:37;;;;;;;25.97;18.57;;;4.80;99.90;;;;;;6277171;28;20481;-62
2023/01/18 05:10:40;;;;;;;26.07;18.97;;;4.70;99.90;;;;;;6278787;28;20458;-64
2023/01/18 05:13:44;;;;;;;28.60;20.70;;;4.70;99.90;;;;;;6277833;28;20490;-62
2023/01/18 05:16:47;;;;;;;29.87;21.73;;;4.70;99.90;;;;;;6276563;28;20797;-63
2023/01/18 05:19:53;;;;;;;23.23;17.37;;;4.60;99.90;;;;;;6276751;28;20500;-63
2023/01/18 05:22:56;;;;;;;21.77;17.43;;;4.40;99.90;;;;;;6276785;28;20481;-63
2023/01/18 05:25:59;;;;;;;26.93;20.50;;;4.50;99.90;;;;;;6285500;28;20476;-62
2023/01/18 05:29:03;;;;;;;34.33;22.07;;;4.50;99.90;;;;;;6302123;28;20477;-63
2023/01/18 05:32:06;;;;;;;39.13;23.40;;;4.40;99.90;;;;;;6297139;28;20480;-62
2023/01/18 05:35:11;;;;;;;25.30;20.33;;;4.20;99.90;;;;;;6301624;28;20972;-62
2023/01/18 05:38:14;;;;;;;29.97;19.90;;;4.10;99.90;;;;;;6301540;28;20482;-62
2023/01/18 05:41:17;;;;;;;23.73;19.87;;;4.10;99.90;;;;;;6302117;28;20476;-63
2023/01/18 05:44:20;;;;;;;24.80;18.67;;;4.00;99.90;;;;;;6301475;28;20473;-62
2023/01/18 05:47:23;;;;;;;24.30;18.50;;;3.90;99.90;;;;;;6301390;28;20485;-63
2023/01/18 05:50:28;;;;;;;25.50;19.60;;;4.00;99.90;;;;;;6301480;28;20469;-62
2023/01/18 05:53:31;;;;;;;28.90;18.80;;;4.00;99.90;;;;;;6282629;28;20466;-62
2023/01/18 05:56:34;;;;;;;29.30;21.03;;;4.00;99.90;;;;;;6276132;28;20988;-62
2023/01/18 05:59:37;;;;;;;25.97;20.37;;;4.10;99.90;;;;;;6276306;28;20482;-62
2023/01/18 06:02:41;;;;;;;29.60;20.50;;;4.00;99.90;;;;;;6276149;28;20478;-62
2023/01/18 06:05:46;;;;;;;27.10;20.20;;;4.00;99.90;;;;;;6276231;28;20474;-62
2023/01/18 06:08:50;;;;;;;27.50;19.90;;;4.10;99.90;;;;;;6275350;28;20761;-63
2023/01/18 06:11:53;;;;;;;27.47;19.27;;;4.00;99.90;;;;;;6274573;28;20441;-62
2023/01/18 06:14:56;;;;;;;25.67;20.00;;;4.00;99.90;;;;;;6275888;28;20508;-63
2023/01/18 06:17:59;;;;;;;27.90;21.60;;;4.00;99.90;;;;;;6253753;28;20932;-63
2023/01/18 06:21:04;;;;;;;31.13;21.53;;;4.00;99.90;;;;;;6253407;28;20556;-62
2023/01/18 06:24:07;;;;;;;31.67;20.27;;;4.00;99.90;;;;;;6250679;28;20452;-63
2023/01/18 06:27:11;;;;;;;26.30;20.10;;;4.10;99.90;;;;;;6287575;28;20929;-63
2023/01/18 06:30:14;;;;;;;26.00;19.37;;;4.10;99.90;;;;;;6300014;28;20469;-64
2023/01/18 06:33:18;;;;;;;28.13;19.60;;;4.10;99.90;;;;;;6300027;28;20461;-63
2023/01/18 06:36:22;;;;;;;25.70;18.97;;;4.20;99.90;;;;;;6299770;28;20471;-63
2023/01/18 06:39:26;;;;;;;25.30;18.77;;;4.30;99.90;;;;;;6300100;28;20513;-64
2023/01/18 06:42:29;;;;;;;23.07;18.30;;;4.20;99.90;;;;;;6299332;28;20484;-63
2023/01/18 06:45:32;;;;;;;23.00;18.43;;;4.20;99.90;;;;;;6299995;28;20953;-63
2023/01/18 06:48:36;;;;;;;26.37;19.90;;;4.20;99.90;;;;;;6299208;28;20481;-63
2023/01/18 06:51:41;;;;;;;24.77;19.00;;;4.30;99.90;;;;;;6296227;28;20951;-63
2023/01/18 06:54:44;;;;;;;24.40;19.30;;;4.30;99.90;;;;;;6274844;28;20533;-63
2023/01/18 06:57:47;;;;;;;21.63;16.70;;;4.30;99.90;;;;;;6274723;28;20983;-63
2023/01/18 07:00:51;;;;;;;23.07;16.70;;;4.40;99.90;;;;;;6271547;28;20493;-64
2023/01/18 07:03:54;;;;;;;21.00;16.27;;;4.30;99.90;;;;;;6268353;28;20470;-63
2023/01/18 07:06:59;;;;;;;23.53;17.50;;;4.40;99.90;;;;;;6270339;28;20463;-64
2023/01/18 07:10:02;;;;;;;25.60;18.67;;;4.40;99.90;;;;;;6252653;28;20481;-62
2023/01/18 07:13:05;;;;;;;26.47;19.67;;;4.40;99.90;;;;;;6274683;28;20465;-64
2023/01/18 07:16:16;;;;;;;28.40;19.73;;;4.30;99.90;;;;;;6273619;28;20466;-63
2023/01/18 07:19:20;;;;;;;22.70;18.90;;;4.40;99.90;;;;;;6273903;28;20565;-62
2023/01/18 07:22:24;;;;;;;22.23;18.80;;;4.50;99.90;;;;;;6273182;28;20485;-63
2023/01/18 07:25:29;;;;;;;21.47;18.10;;;4.50;99.90;;;;;;6278304;28;21004;-63
2023/01/18 07:28:33;;;;;;;23.93;19.30;;;4.60;99.90;;;;;;6300721;28;20973;-64
2023/01/18 07:31:37;;;;;;;23.57;16.83;;;4.70;99.90;;;;;;6299524;28;20557;-62
2023/01/18 07:34:40;;;;;;;21.23;16.97;;;4.70;99.90;;;;;;6298564;28;20569;-62
2023/01/18 07:37:48;;;;;;;24.17;15.83;;;4.80;99.90;;;;;;6274986;28;20486;-63
2023/01/18 07:40:57;;;;;;;23.00;17.20;;;5.00;99.90;;;;;;6273834;28;20478;-63
2023/01/18 07:44:00;;;;;;;25.00;18.73;;;5.10;99.90;;;;;;6273755;28;20478;-62
2023/01/18 07:47:06;;;;;;;26.50;20.03;;;5.30;99.90;;;;;;6274215;28;20470;-63
2023/01/18 07:50:12;;;;;;;31.20;21.80;;;5.40;99.90;;;;;;6273632;28;20489;-61
2023/01/18 07:53:17;;;;;;;21.33;16.80;;;5.50;99.90;;;;;;6274260;28;20474;-62
2023/01/18 07:56:23;;;;;;;22.20;16.03;;;5.80;99.90;;;;;;6273364;28;20478;-63
2023/01/18 07:59:29;;;;;;;19.27;12.70;;;6.00;99.90;;;;;;6273434;28;20493;-65
2023/01/18 08:02:34;;;;;;;18.33;14.60;;;6.10;99.90;;;;;;6273691;28;20692;-63
2023/01/18 08:05:37;;;;;;;18.67;14.40;;;6.20;99.90;;;;;;6273361;28;20485;-64
2023/01/18 08:08:41;;;;;;;17.37;12.90;;;6.40;99.90;;;;;;6273201;28;20478;-63
2023/01/18 08:11:45;;;;;;;18.13;14.83;;;6.50;99.90;;;;;;6273422;28;20470;-65
2023/01/18 08:14:48;;;;;;;19.90;14.80;;;6.50;99.90;;;;;;6273586;28;20477;-63
2023/01/18 08:17:54;;;;;;;20.20;14.97;;;6.40;99.90;;;;;;6272988;28;20801;-64
2023/01/18 08:20:57;;;;;;;18.33;14.30;;;6.40;99.90;;;;;;6273867;28;20419;-63
2023/01/18 08:24:02;;;;;;;16.63;13.20;;;6.40;99.90;;;;;;6273296;28;20438;-64
2023/01/18 08:27:05;;;;;;;21.60;15.20;;;6.40;99.90;;;;;;6291379;28;20441;-62
2023/01/18 08:30:10;;;;;;;21.77;14.20;;;6.40;99.90;;;;;;6298270;28;20457;-62
2023/01/18 08:33:13;;;;;;;17.00;13.10;;;6.40;99.90;;;;;;6298182;28;20914;-66
2023/01/18 08:36:19;;;;;;;17.00;13.50;;;6.40;99.90;;;;;;6300103;28;20471;-63
2023/01/18 08:39:24;;;;;;;13.23;11.40;;;6.50;99.90;;;;;;6277511;28;20843;-63
2023/01/18 08:42:27;;;;;;;15.67;13.00;;;6.60;99.90;;;;;;6278088;28;20473;-63
2023/01/18 08:45:31;;;;;;;15.17;12.73;;;6.60;99.90;;;;;;6278053;28;20476;-64
2023/01/18 08:48:34;;;;;;;16.83;12.63;;;6.50;99.90;;;;;;6277683;28;20481;-66
2023/01/18 08:51:38;;;;;;;19.03;13.07;;;6.50;99.90;;;;;;6273940;28;20467;-65
2023/01/18 08:54:42;;;;;;;14.80;12.90;;;6.40;99.90;;;;;;6252492;28;20577;-65
2023/01/18 08:57:45;;;;;;;15.90;12.83;;;6.40;99.90;;;;;;6252538;28;20471;-63
2023/01/18 09:00:49;;;;;;;15.57;13.07;;;6.40;99.90;;;;;;6252517;28;20475;-65
2023/01/18 09:03:54;;;;;;;13.43;10.20;;;6.40;99.90;;;;;;6259360;28;20485;-64
2023/01/18 09:06:57;;;;;;;16.07;11.80;;;6.40;99.90;;;;;;6277063;28;20792;-63
2023/01/18 09:10:01;;;;;;;14.13;11.70;;;6.40;99.90;;;;;;6276704;28;20475;-63
2023/01/18 09:13:05;;;;;;;14.30;12.10;;;6.50;99.90;;;;;;6276884;28;20462;-64
2023/01/18 09:16:10;;;;;;;16.10;11.97;;;6.50;99.90;;;;;;6270962;28;20489;-65
2023/01/18 09:19:14;;;;;;;14.03;10.90;;;6.30;99.90;;;;;;6267030;28;20789;-63
2023/01/18 09:22:17;;;;;;;15.00;11.40;;;6.30;99.90;;;;;;6276554;28;20493;-64
2023/01/18 09:25:22;;;;;;;15.77;12.30;;;6.20;99.90;;;;;;6279915;28;20956;-63
2023/01/18 09:28:25;;;;;;;13.60;11.70;;;6.40;99.90;;;;;;6301346;28;20478;-65
2023/01/18 09:31:29;;;;;;;15.13;13.20;;;6.50;99.90;;;;;;6301357;28;20528;-65
2023/01/18 09:34:32;;;;;;;16.07;11.63;;;6.60;99.90;;;;;;6302170;28;20469;-63
2023/01/18 09:37:36;;;;;;;13.80;11.40;;;6.50;99.90;;;;;;6300562;28;20480;-62
2023/01/18 09:40:45;;;;;;;13.30;11.30;;;6.60;99.90;;;;;;6300740;28;20469;-65
2023/01/18 09:43:50;;;;;;;14.37;10.90;;;6.60;99.90;;;;;;6298879;28;20485;-65
2023/01/18 09:46:57;;;;;;;10.83;9.20;;;6.50;99.90;;;;;;6260895;28;20485;-64
2023/01/18 09:50:09;;;;;;;10.67;9.50;;;6.50;99.90;;;;;;6264374;28;20484;-64
2023/01/18 09:53:29;;;;;;;11.93;9.77;;;6.50;99.90;;;;;;6268632;28;20498;-64
2023/01/18 09:56:42;;;;;;;15.40;10.50;;;6.50;99.90;;;;;;6263794;28;20467;-65
2023/01/18 09:59:52;;;;;;;11.90;9.80;;;6.70;99.90;;;;;;6263371;28;20942;-64
2023/01/18 10:03:00;;;;;;;11.40;10.10;;;7.00;99.90;;;;;;6251816;28;20468;-64
2023/01/18 10:06:09;;;;;;;12.20;10.67;;;7.30;99.90;;;;;;6251181;28;20416;-64
2023/01/18 10:09:18;;;;;;;11.10;9.17;;;7.40;99.90;;;;;;6251292;28;20456;-64
2023/01/18 10:12:30;;;;;;;10.53;9.40;;;7.50;99.90;;;;;;6273439;28;20489;-64
2023/01/18 10:15:36;;;;;;;10.20;8.97;;;7.60;99.90;;;;;;6275603;28;20545;-64
2023/01/18 10:18:44;;;;;;;10.30;9.30;;;7.70;99.90;;;;;;6275582;28;20969;-64
2023/01/18 10:21:55;;;;;;;11.03;9.93;;;8.00;99.90;;;;;;6275360;28;20474;-64
2023/01/18 10:25:03;;;;;;;11.80;9.93;;;8.10;99.90;;;;;;6275848;28;20481;-64
2023/01/18 10:28:26;;;;;;;10.83;9.60;;;8.10;99.90;;;;;;6299594;28;20819;-64
2023/01/18 10:31:39;;;;;;;11.33;10.10;;;7.90;99.90;;;;;;6299979;28;20791;-64
2023/01/18 10:34:47;;;;;;;10.80;9.80;;;7.90;99.90;;;;;;6299738;28;20832;-64
2023/01/18 10:37:52;;;;;;;10.83;9.70;;;8.00;99.90;;;;;;6299523;28;20807;-64
2023/01/18 10:40:57;;;;;;;10.20;9.30;;;8.10;99.90;;;;;;6299418;28;20473;-65
2023/01/18 10:44:02;;;;;;;10.00;8.63;;;8.20;99.90;;;;;;6299621;28;20511;-64
2023/01/18 10:47:05;;;;;;;11.97;10.60;;;8.30;99.90;;;;;;6299719;28;20469;-64
2023/01/18 10:50:13;;;;;;;12.13;10.67;;;8.30;99.90;;;;;;6299194;28;20477;-64
2023/01/18 10:53:21;;;;;;;17.53;13.50;;;8.30;99.90;;;;;;6282267;28;20466;-65
2023/01/18 10:56:26;;;;;;;10.00;8.90;;;8.40;99.90;;;;;;6274659;28;20549;-64
2023/01/18 10:59:36;;;;;;;9.30;8.07;;;8.50;99.90;;;;;;6273911;28;20485;-64
2023/01/18 11:02:42;;;;;;;9.90;8.90;;;8.80;99.90;;;;;;6274594;28;20501;-64
2023/01/18 11:05:46;;;;;;;9.20;7.87;;;9.30;99.90;;;;;;6274309;28;20818;-64
2023/01/18 11:08:50;;;;;;;10.17;9.20;;;9.50;99.90;;;;;;6274194;28;20485;-64
2023/01/18 11:15:34;;;;;;;9.83;8.90;;;9.70;99.90;;;;;;6274392;28;20962;-65
2023/01/18 11:18:37;;;;;;;12.13;9.17;;;9.60;99.90;;;;;;6274391;28;20471;-65
2023/01/18 11:21:46;;;;;;;9.90;8.90;;;9.50;99.90;;;;;;6274582;28;20485;-64
2023/01/18 11:24:53;;;;;;;10.50;9.40;;;9.60;99.90;;;;;;6274249;28;20486;-64
2023/01/18 11:28:01;;;;;;;9.10;8.20;;;12.70;99.90;;;;;;6249740;28;20486;-64
2023/01/18 11:31:12;;;;;;;8.53;7.73;;;17.80;94.20;;;;;;6249663;28;20479;-65
2023/01/18 11:34:26;;;;;;;8.23;7.53;;;21.30;72.10;;;;;;6249683;28;20478;-64
2023/01/18 11:37:33;;;;;;;8.30;7.60;;;24.20;54.20;;;;;;6251138;28;20319;-64
2023/01/18 11:40:36;;;;;;;8.03;7.40;;;24.70;47.00;;;;;;6260606;28;20294;-64
2023/01/18 11:43:45;;;;;;;9.23;8.53;;;23.80;45.90;;;;;;6261702;28;20234;-64
2023/01/18 11:46:53;;;;;;;9.43;8.70;;;24.50;45.20;;;;;;6257686;28;20219;-64
2023/01/18 11:50:04;;;;;;;9.10;8.40;;;24.80;43.50;;;;;;6261516;28;20318;-63
2023/01/18 11:53:34;;;;;;;7.37;6.70;;;24.70;42.80;;;;;;6261229;28;20220;-64
2023/01/18 11:56:42;;;;;;;8.43;7.73;;;24.80;41.90;;;;;;6271218;28;20235;-64
2023/01/18 11:59:47;;;;;;;8.40;7.70;;;23.70;40.40;;;;;;6256041;28;20232;-64
2023/01/18 12:03:09;;;;;;;8.03;7.43;;;21.60;42.40;;;;;;6269033;28;20362;-64
2023/01/18 12:06:21;;;;;;;7.30;6.60;;;19.20;46.70;;;;;;6273473;28;20231;-63
2023/01/18 12:09:37;;;;;;;7.13;6.50;;;18.70;48.80;;;;;;6274410;28;20227;-64
2023/01/18 12:12:58;;;;;;;7.50;6.80;;;17.90;49.60;;;;;;6253709;28;20782;-64
2023/01/18 12:16:11;;;;;;;7.00;6.30;;;16.70;52.30;;;;;;6253632;28;20463;-65
2023/01/18 12:19:47;;;;;;;7.80;7.10;;;15.90;54.60;;;;;;6253884;28;20475;-63
2023/01/18 12:23:07;;;;;;;10.97;9.93;;;15.30;56.50;;;;;;6253705;28;20813;-64
2023/01/18 12:26:27;;;;;;;6.80;6.23;;;15.00;58.50;;;;;;6274040;28;20484;-63
2023/01/18 12:29:58;;;;;;;6.50;5.80;;;14.70;59.50;;;;;;6302816;28;20473;-64
2023/01/18 12:33:16;;;;;;;6.70;6.20;;;14.50;59.80;;;;;;6269270;28;20462;-62
2023/01/18 12:37:00;;;;;;;6.37;5.87;;;14.30;61.40;;;;;;6278182;28;20474;-64
2023/01/18 12:40:23;;;;;;;6.47;5.93;;;14.10;62.10;;;;;;6278027;28;20465;-62
2023/01/18 12:43:41;;;;;;;9.50;7.13;;;14.20;63.40;;;;;;6277641;28;20848;-63
2023/01/18 12:46:50;;;;;;;7.40;6.70;;;14.80;63.10;;;;;;6276805;28;20509;-62
2023/01/18 12:49:58;;;;;;;6.80;6.20;;;15.50;60.60;;;;;;6275749;28;20485;-62
2023/01/18 12:53:10;;;;;;;7.67;6.97;;;16.00;58.90;;;;;;6275547;28;20463;-62
2023/01/18 12:56:16;;;;;;;7.33;6.10;;;16.20;59.50;;;;;;6276053;28;20977;-63
2023/01/18 12:59:24;;;;;;;5.57;5.17;;;16.10;59.10;;;;;;6276123;28;20523;-62
2023/01/18 13:02:33;;;;;;;6.37;5.60;;;16.10;59.10;;;;;;6277004;28;20494;-62
2023/01/18 13:05:49;;;;;;;6.53;5.93;;;16.20;58.90;;;;;;6276959;28;20545;-62
2023/01/18 13:08:59;;;;;;;6.73;6.13;;;16.30;58.30;;;;;;6276911;28;20793;-62
2023/01/18 13:12:04;;;;;;;4.97;4.57;;;16.60;57.80;;;;;;6277057;28;20442;-61
2023/01/18 13:15:21;;;;;;;6.97;5.90;;;16.30;57.60;;;;;;6277896;28;20478;-61
2023/01/18 13:18:30;;;;;;;8.13;6.23;;;15.60;59.00;;;;;;6277104;28;20544;-63
2023/01/18 13:21:48;;;;;;;5.93;5.43;;;14.90;60.70;;;;;;6275874;28;21013;-62
2023/01/18 13:25:09;;;;;;;6.37;5.77;;;13.80;64.00;;;;;;6276750;28;20471;-62
2023/01/18 13:28:18;;;;;;;5.73;5.23;;;13.00;66.90;;;;;;6251650;28;20482;-62
2023/01/18 13:31:30;;;;;;;7.43;5.53;;;12.30;69.80;;;;;;6251797;28;20467;-61
2023/01/18 13:34:35;;;;;;;7.47;6.77;;;11.60;73.50;;;;;;6252024;28;20476;-63
2023/01/18 13:37:52;;;;;;;9.10;8.17;;;10.90;77.60;;;;;;6251626;28;20478;-63
2023/01/18 13:41:02;;;;;;;10.63;9.53;;;10.50;82.60;;;;;;6251863;28;20475;-64
2023/01/18 13:44:25;;;;;;;12.83;11.60;;;10.00;88.20;;;;;;6251424;28;20479;-62
2023/01/18 13:47:50;;;;;;;13.20;11.80;;;9.60;91.80;;;;;;6251713;28;20967;-64
2023/01/18 13:50:54;;;;;;;13.97;12.43;;;9.40;93.90;;;;;;6251205;28;20475;-62
2023/01/18 13:53:57;;;;;;;15.13;12.50;;;9.20;95.70;;;;;;6273562;28;20443;-62
2023/01/18 13:57:15;;;;;;;14.43;12.30;;;8.90;97.50;;;;;;6275753;28;20446;-64
2023/01/18 14:00:24;;;;;;;17.30;15.50;;;8.70;98.80;;;;;;6276147;28;20545;-62
2023/01/18 14:03:30;;;;;;;15.40;13.60;;;8.60;99.90;;;;;;6275927;28;20946;-61
2023/01/18 14:06:35;;;;;;;18.60;14.57;;;8.40;99.90;;;;;;6275960;28;20474;-62
2023/01/18 14:09:42;;;;;;;15.63;14.10;;;8.10;99.90;;;;;;6275665;28;20493;-68
2023/01/18 14:12:48;;;;;;;16.70;13.77;;;8.00;99.90;;;;;;6276037;28;20480;-64
2023/01/18 14:15:53;;;;;;;15.83;14.07;;;7.80;99.90;;;;;;6274703;28;20807;-63
2023/01/18 14:19:01;;;;;;;17.10;14.20;;;7.70;99.90;;;;;;6275418;28;20496;-63
2023/01/18 14:22:21;;;;;;;14.63;13.17;;;7.70;99.90;;;;;;6275402;28;20478;-62
2023/01/18 14:25:52;;;;;;;16.43;13.80;;;7.70;99.90;;;;;;6279071;28;21023;-62
2023/01/18 14:29:00;;;;;;;14.37;11.80;;;7.60;99.90;;;;;;6299926;28;20798;-62
2023/01/18 14:32:08;;;;;;;18.60;15.10;;;7.40;99.90;;;;;;6299583;28;20528;-62
2023/01/18 14:35:22;;;;;;;16.27;13.67;;;7.00;99.90;;;;;;6250585;28;20471;-62
2023/01/18 14:38:28;;;;;;;16.80;13.60;;;6.80;99.90;;;;;;6250138;28;20477;-62
2023/01/18 14:41:32;;;;;;;21.13;13.97;;;6.50;99.90;;;;;;6249850;28;20482;-62
2023/01/18 14:44:41;;;;;;;14.33;11.93;;;6.50;99.90;;;;;;6250010;28;20502;-62
2023/01/18 14:48:02;;;;;;;16.67;13.50;;;6.50;99.90;;;;;;6249688;28;20491;-63
2023/01/18 14:51:05;;;;;;;17.10;15.27;;;6.60;99.90;;;;;;6250057;28;20438;-62
2023/01/18 14:54:16;;;;;;;61.67;37.33;;;6.60;99.90;;;;;;6268250;28;20539;-62
2023/01/18 14:57:21;;;;;;;30.13;22.03;;;6.70;99.90;;;;;;6274304;28;20488;-66
2023/01/18 15:00:26;;;;;;;39.13;25.33;;;6.80;99.90;;;;;;6273827;28;20468;-62
2023/01/18 15:03:31;;;;;;;25.07;18.20;;;6.80;99.90;;;;;;6269521;28;20692;-63
2023/01/18 15:06:39;;;;;;;32.97;23.80;;;6.80;99.90;;;;;;6262426;28;20505;-62
2023/01/18 15:09:44;;;;;;;28.50;23.70;;;6.90;99.90;;;;;;6263725;28;20973;-62
2023/01/18 15:12:50;;;;;;;22.73;18.70;;;6.90;99.90;;;;;;6273913;28;20946;-62
2023/01/18 15:15:59;;;;;;;24.70;19.63;;;6.90;99.90;;;;;;6274238;28;20974;-63
2023/01/18 15:19:04;;;;;;;21.47;16.77;;;6.90;99.90;;;;;;6274003;28;20489;-63
2023/01/18 15:22:10;;;;;;;18.60;14.70;;;6.90;99.90;;;;;;6274061;28;20466;-63
2023/01/18 15:25:19;;;;;;;20.90;17.47;;;6.90;99.90;;;;;;6276277;28;20478;-64
2023/01/18 15:28:24;;;;;;;21.60;17.40;;;6.90;99.90;;;;;;6284809;28;20497;-63
2023/01/18 15:31:29;;;;;;;17.43;13.30;;;6.90;99.90;;;;;;6273881;28;20462;-63
2023/01/18 15:34:36;;;;;;;20.20;17.50;;;6.80;99.90;;;;;;6274231;28;20477;-63
2023/01/18 15:37:39;;;;;;;17.33;15.53;;;6.80;99.90;;;;;;6273728;28;20992;-63
2023/01/18 15:40:54;;;;;;;24.47;20.40;;;6.80;99.90;;;;;;6274065;28;20787;-63
2023/01/18 15:43:57;;;;;;;28.57;20.53;;;6.70;99.90;;;;;;6275232;28;20466;-63
2023/01/18 15:47:02;;;;;;;15.47;13.70;;;6.70;99.90;;;;;;6279059;28;20814;-63
2023/01/18 15:50:18;;;;;;;16.63;14.23;;;6.70;99.90;;;;;;6278450;28;20489;-63
2023/01/18 15:53:27;;;;;;;18.97;14.20;;;6.70;99.90;;;;;;6278107;28;20861;-60
2023/01/18 15:56:32;;;;;;;17.33;14.70;;;6.80;99.90;;;;;;6264343;28;20478;-60
2023/01/18 15:59:35;;;;;;;17.23;15.30;;;6.80;99.90;;;;;;6277462;28;20478;-61
2023/01/18 16:02:52;;;;;;;18.73;16.67;;;6.80;99.90;;;;;;6271845;28;20474;-60
2023/01/18 16:06:12;;;;;;;17.90;15.50;;;6.80;99.90;;;;;;6274209;28;20521;-59
2023/01/18 16:09:21;;;;;;;17.67;15.77;;;6.80;99.90;;;;;;6278167;28;20470;-60
2023/01/18 16:12:33;;;;;;;17.63;14.07;;;6.80;99.90;;;;;;6271119;28;20466;-59
2023/01/18 16:15:36;;;;;;;23.17;19.37;;;6.70;99.90;;;;;;6255758;28;20471;-60
2023/01/18 16:18:43;;;;;;;19.63;16.83;;;6.70;99.90;;;;;;6253931;28;20482;-59
2023/01/18 16:21:49;;;;;;;22.20;17.00;;;6.70;99.90;;;;;;6253612;28;20463;-61
2023/01/18 16:24:56;;;;;;;19.10;17.07;;;6.60;99.90;;;;;;6253737;28;20497;-60
2023/01/18 16:28:01;;;;;;;19.90;16.47;;;6.60;99.90;;;;;;6253255;28;20483;-60
2023/01/18 16:31:05;;;;;;;22.97;18.00;;;6.60;99.90;;;;;;6253640;28;20481;-62
2023/01/18 16:34:23;;;;;;;17.33;14.80;;;6.50;99.90;;;;;;6249302;28;20467;-62
2023/01/18 16:37:27;;;;;;;19.40;15.20;;;6.40;99.90;;;;;;6253309;28;20494;-62
2023/01/18 16:40:30;;;;;;;23.23;17.87;;;6.50;99.90;;;;;;6253283;28;20487;-61